Harlem, Montana
Current Conditions -  °F | °C
As of 12:53 PM on Friday 24 Oct 2014 (Local Time) from KHVR Reporting Station
Clear Clear  
Wind Chill: 56°   Ceiling: Unl
Heat Index: 56°   Visibility: 10mi
Dew Point: 31°   Wind: 17mph
Humidity: 39%   Direction: 240°WSW
Pressure: 30"   Gusts: NA
Location:  48.53°N, 108.78°W
Report Text: KHVR 241853Z AUTO 24015KT 10SM CLR 13/M01 A3000 RMK AO2 SLP161 T01331006
Loading
Personal Weather Stations






























Interactive Weather Map
Tropical Storm Tracking
New forecast layout! Learn more

10-Day Weather Forecast

Advertisements
Track Severe Weather on mobile